sensor_id;sensor_type;location;lat;lon;timestamp;P1;durP1;ratioP1;P2;durP2;ratioP2
63959;SDS011;50136;51.374;0.096;2023-09-07T00:04:17;108.53;;;76.40;;
63959;SDS011;50136;51.374;0.096;2023-09-07T00:14:19;116.65;;;79.88;;
63959;SDS011;50136;51.374;0.096;2023-09-07T00:24:22;113.05;;;79.22;;
63959;SDS011;50136;51.374;0.096;2023-09-07T00:34:24;116.35;;;80.35;;
63959;SDS011;50136;51.374;0.096;2023-09-07T00:44:27;100.65;;;71.75;;
63959;SDS011;50136;51.374;0.096;2023-09-07T00:54:29;48.45;;;35.88;;
63959;SDS011;50136;51.374;0.096;2023-09-07T01:04:33;48.05;;;34.85;;
63959;SDS011;50136;51.374;0.096;2023-09-07T01:14:35;66.40;;;37.97;;
63959;SDS011;50136;51.374;0.096;2023-09-07T01:24:38;36.53;;;23.90;;
63959;SDS011;50136;51.374;0.096;2023-09-07T01:34:41;29.27;;;22.17;;
63959;SDS011;50136;51.374;0.096;2023-09-07T01:44:44;31.88;;;21.63;;
63959;SDS011;50136;51.374;0.096;2023-09-07T01:54:46;33.80;;;24.60;;
63959;SDS011;50136;51.374;0.096;2023-09-07T02:04:50;40.75;;;28.02;;
63959;SDS011;50136;51.374;0.096;2023-09-07T02:14:52;32.63;;;23.80;;
63959;SDS011;50136;51.374;0.096;2023-09-07T02:24:55;31.60;;;22.58;;
63959;SDS011;50136;51.374;0.096;2023-09-07T02:34:57;58.05;;;35.75;;
63959;SDS011;50136;51.374;0.096;2023-09-07T02:45:01;76.63;;;45.53;;
63959;SDS011;50136;51.374;0.096;2023-09-07T02:55:03;138.27;;;75.80;;
63959;SDS011;50136;51.374;0.096;2023-09-07T03:05:07;143.30;;;74.22;;
63959;SDS011;50136;51.374;0.096;2023-09-07T03:15:10;136.00;;;67.03;;
63959;SDS011;50136;51.374;0.096;2023-09-07T03:25:14;128.05;;;67.30;;
63959;SDS011;50136;51.374;0.096;2023-09-07T03:35:17;127.50;;;63.88;;
63959;SDS011;50136;51.374;0.096;2023-09-07T03:45:20;145.95;;;66.00;;
63959;SDS011;50136;51.374;0.096;2023-09-07T03:55:24;144.68;;;68.00;;
63959;SDS011;50136;51.374;0.096;2023-09-07T04:05:27;129.80;;;66.70;;
63959;SDS011;50136;51.374;0.096;2023-09-07T04:15:29;130.45;;;64.90;;
63959;SDS011;50136;51.374;0.096;2023-09-07T04:25:33;137.40;;;67.75;;
63959;SDS011;50136;51.374;0.096;2023-09-07T04:35:35;141.45;;;72.47;;
63959;SDS011;50136;51.374;0.096;2023-09-07T04:45:44;145.52;;;73.68;;
63959;SDS011;50136;51.374;0.096;2023-09-07T04:55:47;147.88;;;70.00;;
63959;SDS011;50136;51.374;0.096;2023-09-07T05:05:52;140.52;;;67.18;;
63959;SDS011;50136;51.374;0.096;2023-09-07T05:15:55;148.23;;;69.20;;
63959;SDS011;50136;51.374;0.096;2023-09-07T05:26:00;163.98;;;68.78;;
63959;SDS011;50136;51.374;0.096;2023-09-07T05:36:02;175.52;;;68.28;;
63959;SDS011;50136;51.374;0.096;2023-09-07T05:46:06;172.55;;;73.78;;
63959;SDS011;50136;51.374;0.096;2023-09-07T05:56:08;167.77;;;69.53;;
63959;SDS011;50136;51.374;0.096;2023-09-07T06:06:12;148.38;;;77.05;;
63959;SDS011;50136;51.374;0.096;2023-09-07T06:16:14;144.60;;;73.32;;
63959;SDS011;50136;51.374;0.096;2023-09-07T06:26:18;129.45;;;74.63;;
63959;SDS011;50136;51.374;0.096;2023-09-07T06:36:20;129.95;;;73.93;;
63959;SDS011;50136;51.374;0.096;2023-09-07T06:46:39;113.82;;;71.90;;
63959;SDS011;50136;51.374;0.096;2023-09-07T06:56:42;105.60;;;69.22;;
63959;SDS011;50136;51.374;0.096;2023-09-07T07:06:51;113.03;;;72.87;;
63959;SDS011;50136;51.374;0.096;2023-09-07T07:16:53;110.03;;;73.70;;
63959;SDS011;50136;51.374;0.096;2023-09-07T07:26:56;109.63;;;72.72;;
63959;SDS011;50136;51.374;0.096;2023-09-07T07:36:58;111.60;;;75.40;;
63959;SDS011;50136;51.374;0.096;2023-09-07T07:47:02;97.07;;;69.75;;
63959;SDS011;50136;51.374;0.096;2023-09-07T07:57:04;89.38;;;67.60;;
63959;SDS011;50136;51.374;0.096;2023-09-07T08:07:08;81.03;;;63.85;;
63959;SDS011;50136;51.374;0.096;2023-09-07T08:17:10;82.35;;;62.20;;
63959;SDS011;50136;51.374;0.096;2023-09-07T08:27:16;67.28;;;54.17;;
63959;SDS011;50136;51.374;0.096;2023-09-07T08:37:18;70.30;;;56.53;;
63959;SDS011;50136;51.374;0.096;2023-09-07T08:47:27;64.05;;;52.05;;
63959;SDS011;50136;51.374;0.096;2023-09-07T08:57:30;54.78;;;46.63;;
63959;SDS011;50136;51.374;0.096;2023-09-07T09:07:34;51.08;;;43.25;;
63959;SDS011;50136;51.374;0.096;2023-09-07T09:17:36;44.22;;;38.30;;
63959;SDS011;50136;51.374;0.096;2023-09-07T09:27:40;44.70;;;36.20;;
63959;SDS011;50136;51.374;0.096;2023-09-07T09:37:45;49.13;;;32.20;;
63959;SDS011;50136;51.374;0.096;2023-09-07T09:47:49;34.53;;;29.73;;
63959;SDS011;50136;51.374;0.096;2023-09-07T09:57:53;38.65;;;25.75;;
63959;SDS011;50136;51.374;0.096;2023-09-07T10:07:59;31.85;;;26.63;;
63959;SDS011;50136;51.374;0.096;2023-09-07T10:18:03;25.38;;;22.83;;
63959;SDS011;50136;51.374;0.096;2023-09-07T10:28:18;26.55;;;23.20;;
63959;SDS011;50136;51.374;0.096;2023-09-07T10:38:24;26.88;;;21.55;;
63959;SDS011;50136;51.374;0.096;2023-09-07T10:48:28;27.33;;;18.77;;
63959;SDS011;50136;51.374;0.096;2023-09-07T10:58:31;20.33;;;17.58;;
63959;SDS011;50136;51.374;0.096;2023-09-07T11:08:35;18.88;;;16.30;;
63959;SDS011;50136;51.374;0.096;2023-09-07T11:18:37;16.85;;;14.10;;
63959;SDS011;50136;51.374;0.096;2023-09-07T11:28:44;18.30;;;11.27;;
63959;SDS011;50136;51.374;0.096;2023-09-07T11:48:50;12.43;;;8.68;;
63959;SDS011;50136;51.374;0.096;2023-09-07T11:58:53;10.27;;;7.03;;
63959;SDS011;50136;51.374;0.096;2023-09-07T12:09:01;12.07;;;6.50;;
63959;SDS011;50136;51.374;0.096;2023-09-07T12:19:04;9.85;;;7.03;;
63959;SDS011;50136;51.374;0.096;2023-09-07T12:40:22;21.10;;;8.90;;
63959;SDS011;50136;51.374;0.096;2023-09-07T12:50:24;6.30;;;5.20;;
63959;SDS011;50136;51.374;0.096;2023-09-07T13:00:28;7.82;;;6.10;;
63959;SDS011;50136;51.374;0.096;2023-09-07T13:10:30;6.22;;;4.88;;
63959;SDS011;50136;51.374;0.096;2023-09-07T13:20:34;5.13;;;3.85;;
63959;SDS011;50136;51.374;0.096;2023-09-07T13:30:36;7.30;;;4.88;;
63959;SDS011;50136;51.374;0.096;2023-09-07T13:40:40;8.07;;;5.00;;
63959;SDS011;50136;51.374;0.096;2023-09-07T13:50:42;9.65;;;5.32;;
63959;SDS011;50136;51.374;0.096;2023-09-07T14:00:46;8.57;;;4.97;;
63959;SDS011;50136;51.374;0.096;2023-09-07T14:10:48;6.78;;;4.28;;
63959;SDS011;50136;51.374;0.096;2023-09-07T14:20:52;7.85;;;4.65;;
63959;SDS011;50136;51.374;0.096;2023-09-07T14:30:54;9.18;;;4.57;;
63959;SDS011;50136;51.374;0.096;2023-09-07T14:40:57;9.25;;;5.05;;
63959;SDS011;50136;51.374;0.096;2023-09-07T14:50:59;9.52;;;4.65;;
63959;SDS011;50136;51.374;0.096;2023-09-07T15:01:05;5.97;;;4.65;;
63959;SDS011;50136;51.374;0.096;2023-09-07T15:21:14;6.13;;;4.40;;
63959;SDS011;50136;51.374;0.096;2023-09-07T15:31:16;8.98;;;4.47;;
63959;SDS011;50136;51.374;0.096;2023-09-07T15:41:20;6.63;;;4.88;;
63959;SDS011;50136;51.374;0.096;2023-09-07T15:51:22;7.00;;;4.18;;
63959;SDS011;50136;51.374;0.096;2023-09-07T16:01:25;8.35;;;5.68;;
63959;SDS011;50136;51.374;0.096;2023-09-07T16:11:27;11.18;;;5.93;;
63959;SDS011;50136;51.374;0.096;2023-09-07T16:21:31;9.32;;;6.18;;
63959;SDS011;50136;51.374;0.096;2023-09-07T16:31:33;11.05;;;6.97;;
63959;SDS011;50136;51.374;0.096;2023-09-07T16:41:36;9.95;;;7.55;;
63959;SDS011;50136;51.374;0.096;2023-09-07T16:51:40;13.88;;;7.47;;
63959;SDS011;50136;51.374;0.096;2023-09-07T17:01:43;16.92;;;8.23;;
63959;SDS011;50136;51.374;0.096;2023-09-07T17:11:45;13.07;;;8.02;;
63959;SDS011;50136;51.374;0.096;2023-09-07T17:21:49;14.77;;;9.75;;
63959;SDS011;50136;51.374;0.096;2023-09-07T17:31:52;13.52;;;9.13;;
63959;SDS011;50136;51.374;0.096;2023-09-07T17:41:55;10.75;;;8.88;;
63959;SDS011;50136;51.374;0.096;2023-09-07T17:51:57;15.27;;;9.45;;
63959;SDS011;50136;51.374;0.096;2023-09-07T18:02:01;13.98;;;9.32;;
63959;SDS011;50136;51.374;0.096;2023-09-07T18:12:03;15.82;;;11.95;;
63959;SDS011;50136;51.374;0.096;2023-09-07T18:22:07;19.20;;;11.52;;
63959;SDS011;50136;51.374;0.096;2023-09-07T18:32:09;19.98;;;13.85;;
63959;SDS011;50136;51.374;0.096;2023-09-07T18:42:14;20.88;;;15.65;;
63959;SDS011;50136;51.374;0.096;2023-09-07T18:52:16;22.35;;;14.48;;
63959;SDS011;50136;51.374;0.096;2023-09-07T19:02:21;26.35;;;15.82;;
63959;SDS011;50136;51.374;0.096;2023-09-07T19:12:41;27.92;;;15.25;;
63959;SDS011;50136;51.374;0.096;2023-09-07T19:22:51;24.20;;;17.10;;
63959;SDS011;50136;51.374;0.096;2023-09-07T19:32:53;26.90;;;19.73;;
63959;SDS011;50136;51.374;0.096;2023-09-07T19:42:58;16.60;;;14.25;;
63959;SDS011;50136;51.374;0.096;2023-09-07T19:53:09;21.77;;;15.90;;
63959;SDS011;50136;51.374;0.096;2023-09-07T20:03:12;17.10;;;13.82;;
63959;SDS011;50136;51.374;0.096;2023-09-07T20:13:18;14.20;;;10.82;;
63959;SDS011;50136;51.374;0.096;2023-09-07T20:23:22;14.57;;;10.05;;
63959;SDS011;50136;51.374;0.096;2023-09-07T20:33:25;12.15;;;8.75;;
63959;SDS011;50136;51.374;0.096;2023-09-07T20:53:57;11.07;;;8.00;;
63959;SDS011;50136;51.374;0.096;2023-09-07T21:04:01;9.60;;;7.68;;
63959;SDS011;50136;51.374;0.096;2023-09-07T21:14:03;12.57;;;8.00;;
63959;SDS011;50136;51.374;0.096;2023-09-07T21:24:07;9.85;;;6.18;;
63959;SDS011;50136;51.374;0.096;2023-09-07T21:34:09;10.02;;;6.60;;
63959;SDS011;50136;51.374;0.096;2023-09-07T21:44:12;11.43;;;6.95;;
63959;SDS011;50136;51.374;0.096;2023-09-07T21:54:14;9.63;;;6.55;;
63959;SDS011;50136;51.374;0.096;2023-09-07T22:04:17;10.40;;;6.90;;
63959;SDS011;50136;51.374;0.096;2023-09-07T22:14:20;9.73;;;6.00;;
63959;SDS011;50136;51.374;0.096;2023-09-07T22:24:23;8.23;;;5.22;;
63959;SDS011;50136;51.374;0.096;2023-09-07T22:34:26;10.13;;;5.53;;
63959;SDS011;50136;51.374;0.096;2023-09-07T22:44:29;8.05;;;5.00;;
63959;SDS011;50136;51.374;0.096;2023-09-07T22:54:32;11.70;;;4.50;;
63959;SDS011;50136;51.374;0.096;2023-09-07T23:04:35;6.82;;;4.82;;
63959;SDS011;50136;51.374;0.096;2023-09-07T23:14:37;5.78;;;4.15;;
63959;SDS011;50136;51.374;0.096;2023-09-07T23:24:40;6.57;;;4.18;;
63959;SDS011;50136;51.374;0.096;2023-09-07T23:34:42;7.28;;;4.03;;
63959;SDS011;50136;51.374;0.096;2023-09-07T23:44:46;8.32;;;3.90;;
63959;SDS011;50136;51.374;0.096;2023-09-07T23:54:48;5.35;;;4.18;;
